sensor_id;sensor_type;location;lat;lon;timestamp;pressure;altitude;pressure_sealevel;temperature;humidity
58658;BME280;44428;45.630;13.786;2023-02-03T00:00:07;102297.53;;;4.11;83.18
58658;BME280;44428;45.630;13.786;2023-02-03T00:02:41;102309.50;;;4.25;81.40
58658;BME280;44428;45.630;13.786;2023-02-03T00:05:08;102305.88;;;4.32;80.94
58658;BME280;44428;45.630;13.786;2023-02-03T00:07:36;102306.47;;;4.46;79.21
58658;BME280;44428;45.630;13.786;2023-02-03T00:10:05;102307.19;;;4.54;78.31
58658;BME280;44428;45.630;13.786;2023-02-03T00:12:33;102313.13;;;4.63;77.26
58658;BME280;44428;45.630;13.786;2023-02-03T00:15:03;102308.78;;;4.62;76.77
58658;BME280;44428;45.630;13.786;2023-02-03T00:17:33;102303.50;;;4.65;76.37
58658;BME280;44428;45.630;13.786;2023-02-03T00:20:00;102314.09;;;4.58;76.78
58658;BME280;44428;45.630;13.786;2023-02-03T00:22:26;102316.78;;;4.55;76.94
58658;BME280;44428;45.630;13.786;2023-02-03T00:24:54;102312.56;;;4.48;76.65
58658;BME280;44428;45.630;13.786;2023-02-03T00:27:21;102309.09;;;4.46;77.04
58658;BME280;44428;45.630;13.786;2023-02-03T00:29:48;102318.66;;;4.49;76.54
58658;BME280;44428;45.630;13.786;2023-02-03T00:32:15;102313.28;;;4.55;76.33
58658;BME280;44428;45.630;13.786;2023-02-03T00:34:44;102324.44;;;4.65;75.30
58658;BME280;44428;45.630;13.786;2023-02-03T00:37:23;102324.13;;;4.80;73.81
58658;BME280;44428;45.630;13.786;2023-02-03T00:39:54;102326.34;;;5.00;72.53
58658;BME280;44428;45.630;13.786;2023-02-03T00:42:21;102318.44;;;5.01;72.20
58658;BME280;44428;45.630;13.786;2023-02-03T00:44:48;102326.94;;;5.13;71.31
58658;BME280;44428;45.630;13.786;2023-02-03T00:47:15;102334.63;;;5.20;70.81
58658;BME280;44428;45.630;13.786;2023-02-03T00:49:41;102345.72;;;5.33;70.02
58658;BME280;44428;45.630;13.786;2023-02-03T00:52:08;102354.31;;;5.38;69.27
58658;BME280;44428;45.630;13.786;2023-02-03T00:54:34;102351.63;;;5.41;69.00
58658;BME280;44428;45.630;13.786;2023-02-03T00:57:02;102354.19;;;5.44;68.63
58658;BME280;44428;45.630;13.786;2023-02-03T00:59:29;102363.09;;;5.37;69.11
58658;BME280;44428;45.630;13.786;2023-02-03T01:01:57;102359.72;;;5.32;68.75
58658;BME280;44428;45.630;13.786;2023-02-03T01:04:26;102375.22;;;5.41;68.48
58658;BME280;44428;45.630;13.786;2023-02-03T01:07:00;102373.50;;;5.40;68.43
58658;BME280;44428;45.630;13.786;2023-02-03T01:09:26;102369.78;;;5.50;67.84
58658;BME280;44428;45.630;13.786;2023-02-03T01:11:54;102387.88;;;5.63;67.25
58658;BME280;44428;45.630;13.786;2023-02-03T01:14:27;102389.47;;;5.68;66.80
58658;BME280;44428;45.630;13.786;2023-02-03T01:16:54;102381.75;;;5.64;66.92
58658;BME280;44428;45.630;13.786;2023-02-03T01:19:21;102382.88;;;5.50;67.71
58658;BME280;44428;45.630;13.786;2023-02-03T01:21:48;102386.53;;;5.45;67.91
58658;BME280;44428;45.630;13.786;2023-02-03T01:24:14;102383.22;;;5.37;68.45
58658;BME280;44428;45.630;13.786;2023-02-03T01:26:40;102378.97;;;5.31;68.89
58658;BME280;44428;45.630;13.786;2023-02-03T01:29:06;102375.22;;;5.41;68.25
58658;BME280;44428;45.630;13.786;2023-02-03T01:31:37;102378.75;;;5.40;68.14
58658;BME280;44428;45.630;13.786;2023-02-03T01:34:11;102384.19;;;5.31;68.35
58658;BME280;44428;45.630;13.786;2023-02-03T01:36:37;102379.03;;;5.28;68.59
58658;BME280;44428;45.630;13.786;2023-02-03T01:39:04;102372.06;;;5.27;67.91
58658;BME280;44428;45.630;13.786;2023-02-03T01:41:34;102374.63;;;5.28;68.39
58658;BME280;44428;45.630;13.786;2023-02-03T01:44:30;102371.94;;;5.33;67.81
58658;BME280;44428;45.630;13.786;2023-02-03T01:46:48;102379.63;;;5.41;67.26
58658;BME280;44428;45.630;13.786;2023-02-03T01:49:22;102363.53;;;5.56;66.48
58658;BME280;44428;45.630;13.786;2023-02-03T01:51:50;102362.75;;;5.53;67.18
58658;BME280;44428;45.630;13.786;2023-02-03T01:54:23;102358.50;;;5.47;67.24
58658;BME280;44428;45.630;13.786;2023-02-03T01:56:59;102340.13;;;5.48;67.02
58658;BME280;44428;45.630;13.786;2023-02-03T01:59:30;102338.31;;;5.50;66.91
58658;BME280;44428;45.630;13.786;2023-02-03T02:01:59;102352.13;;;5.59;66.24
58658;BME280;44428;45.630;13.786;2023-02-03T02:04:30;102339.72;;;5.67;65.86
58658;BME280;44428;45.630;13.786;2023-02-03T02:06:59;102334.88;;;5.48;66.39
58658;BME280;44428;45.630;13.786;2023-02-03T02:09:26;102333.16;;;5.47;66.13
58658;BME280;44428;45.630;13.786;2023-02-03T02:11:53;102333.34;;;5.38;66.47
58658;BME280;44428;45.630;13.786;2023-02-03T02:14:19;102331.72;;;5.34;66.91
58658;BME280;44428;45.630;13.786;2023-02-03T02:16:56;102331.78;;;5.31;66.99
58658;BME280;44428;45.630;13.786;2023-02-03T02:22:27;102335.97;;;5.40;66.78
58658;BME280;44428;45.630;13.786;2023-02-03T02:33:43;102308.69;;;5.48;66.65
58658;BME280;44428;45.630;13.786;2023-02-03T02:36:29;102310.59;;;5.40;67.07
58658;BME280;44428;45.630;13.786;2023-02-03T02:39:07;102313.84;;;5.51;66.76
58658;BME280;44428;45.630;13.786;2023-02-03T02:42:00;102326.03;;;5.53;66.99
58658;BME280;44428;45.630;13.786;2023-02-03T02:44:32;102325.75;;;5.65;66.56
58658;BME280;44428;45.630;13.786;2023-02-03T02:47:11;102324.13;;;5.59;66.37
58658;BME280;44428;45.630;13.786;2023-02-03T02:49:51;102336.59;;;5.49;66.92
58658;BME280;44428;45.630;13.786;2023-02-03T02:52:20;102326.19;;;5.46;66.73
58658;BME280;44428;45.630;13.786;2023-02-03T02:54:51;102321.94;;;5.42;66.67
58658;BME280;44428;45.630;13.786;2023-02-03T02:57:20;102325.41;;;5.41;67.01
58658;BME280;44428;45.630;13.786;2023-02-03T02:59:48;102340.28;;;5.42;66.88
58658;BME280;44428;45.630;13.786;2023-02-03T03:02:14;102345.88;;;5.27;67.26
58658;BME280;44428;45.630;13.786;2023-02-03T03:04:40;102361.66;;;5.24;67.83
58658;BME280;44428;45.630;13.786;2023-02-03T03:07:11;102368.75;;;5.19;67.91
58658;BME280;44428;45.630;13.786;2023-02-03T03:09:41;102375.56;;;5.26;68.05
58658;BME280;44428;45.630;13.786;2023-02-03T03:12:22;102361.44;;;5.33;67.57
58658;BME280;44428;45.630;13.786;2023-02-03T03:15:02;102357.13;;;5.31;67.67
58658;BME280;44428;45.630;13.786;2023-02-03T03:17:33;102371.94;;;5.33;67.72
58658;BME280;44428;45.630;13.786;2023-02-03T03:20:04;102380.81;;;5.26;68.11
58658;BME280;44428;45.630;13.786;2023-02-03T03:22:34;102375.63;;;5.23;68.01
58658;BME280;44428;45.630;13.786;2023-02-03T03:25:24;102388.13;;;5.12;68.79
58658;BME280;44428;45.630;13.786;2023-02-03T03:28:00;102386.50;;;5.04;68.98
58658;BME280;44428;45.630;13.786;2023-02-03T03:30:35;102389.91;;;5.10;68.92
58658;BME280;44428;45.630;13.786;2023-02-03T03:33:02;102381.31;;;5.01;69.38
58658;BME280;44428;45.630;13.786;2023-02-03T03:35:54;102385.88;;;4.92;69.71
58658;BME280;44428;45.630;13.786;2023-02-03T03:38:31;102397.22;;;4.92;69.72
58658;BME280;44428;45.630;13.786;2023-02-03T03:41:05;102399.03;;;4.90;69.69
58658;BME280;44428;45.630;13.786;2023-02-03T03:43:37;102403.31;;;4.93;69.52
58658;BME280;44428;45.630;13.786;2023-02-03T03:46:25;102398.00;;;4.97;69.16
58658;BME280;44428;45.630;13.786;2023-02-03T03:48:54;102412.88;;;4.95;69.41
58658;BME280;44428;45.630;13.786;2023-02-03T03:51:28;102402.41;;;4.95;69.23
58658;BME280;44428;45.630;13.786;2023-02-03T03:53:58;102394.41;;;5.03;68.63
58658;BME280;44428;45.630;13.786;2023-02-03T03:56:35;102410.84;;;5.10;68.30
58658;BME280;44428;45.630;13.786;2023-02-03T03:59:06;102403.91;;;5.09;68.47
58658;BME280;44428;45.630;13.786;2023-02-03T04:01:33;102415.97;;;5.16;67.67
58658;BME280;44428;45.630;13.786;2023-02-03T04:04:02;102415.84;;;5.22;67.05
58658;BME280;44428;45.630;13.786;2023-02-03T04:06:30;102419.38;;;5.21;67.41
58658;BME280;44428;45.630;13.786;2023-02-03T04:08:55;102428.09;;;5.20;67.37
58658;BME280;44428;45.630;13.786;2023-02-03T04:11:21;102431.50;;;5.25;66.94
58658;BME280;44428;45.630;13.786;2023-02-03T04:14:05;102424.75;;;5.15;68.05
58658;BME280;44428;45.630;13.786;2023-02-03T04:16:31;102428.28;;;5.11;67.57
58658;BME280;44428;45.630;13.786;2023-02-03T04:18:57;102418.66;;;5.11;68.17
58658;BME280;44428;45.630;13.786;2023-02-03T04:21:22;102416.41;;;4.94;68.91
58658;BME280;44428;45.630;13.786;2023-02-03T04:23:48;102428.72;;;4.89;68.88
58658;BME280;44428;45.630;13.786;2023-02-03T04:26:14;102434.00;;;4.86;69.21
58658;BME280;44428;45.630;13.786;2023-02-03T04:28:40;102441.09;;;4.81;69.07
58658;BME280;44428;45.630;13.786;2023-02-03T04:31:07;102450.13;;;4.65;69.73
58658;BME280;44428;45.630;13.786;2023-02-03T04:33:33;102459.09;;;4.51;70.29
58658;BME280;44428;45.630;13.786;2023-02-03T04:35:59;102452.31;;;4.38;71.05
58658;BME280;44428;45.630;13.786;2023-02-03T04:38:24;102456.84;;;4.28;72.09
58658;BME280;44428;45.630;13.786;2023-02-03T04:40:50;102456.13;;;4.19;73.90
58658;BME280;44428;45.630;13.786;2023-02-03T04:43:15;102463.16;;;4.13;74.51
58658;BME280;44428;45.630;13.786;2023-02-03T04:45:41;102471.19;;;4.03;74.71
58658;BME280;44428;45.630;13.786;2023-02-03T04:48:07;102473.09;;;3.92;75.51
58658;BME280;44428;45.630;13.786;2023-02-03T04:50:32;102481.03;;;3.84;75.88
58658;BME280;44428;45.630;13.786;2023-02-03T04:52:58;102477.63;;;3.79;76.00
58658;BME280;44428;45.630;13.786;2023-02-03T04:55:25;102480.22;;;3.82;75.36
58658;BME280;44428;45.630;13.786;2023-02-03T04:57:58;102478.31;;;3.92;75.09
58658;BME280;44428;45.630;13.786;2023-02-03T05:00:25;102470.44;;;3.93;75.42
58658;BME280;44428;45.630;13.786;2023-02-03T05:02:51;102473.72;;;4.07;74.98
58658;BME280;44428;45.630;13.786;2023-02-03T05:05:18;102477.09;;;4.14;74.36
58658;BME280;44428;45.630;13.786;2023-02-03T05:07:44;102484.16;;;4.10;74.10
58658;BME280;44428;45.630;13.786;2023-02-03T05:10:10;102466.91;;;3.97;75.06
58658;BME280;44428;45.630;13.786;2023-02-03T05:12:36;102467.09;;;3.85;75.36
58658;BME280;44428;45.630;13.786;2023-02-03T05:15:02;102463.78;;;3.71;76.31
58658;BME280;44428;45.630;13.786;2023-02-03T05:17:28;102470.81;;;3.65;77.21
58658;BME280;44428;45.630;13.786;2023-02-03T05:19:53;102482.22;;;3.61;77.32
58658;BME280;44428;45.630;13.786;2023-02-03T05:22:19;102493.72;;;3.48;77.56
58658;BME280;44428;45.630;13.786;2023-02-03T05:24:45;102502.53;;;3.38;78.45
58658;BME280;44428;45.630;13.786;2023-02-03T05:27:10;102500.81;;;3.37;79.22
58658;BME280;44428;45.630;13.786;2023-02-03T05:29:36;102505.94;;;3.46;79.37
58658;BME280;44428;45.630;13.786;2023-02-03T05:32:02;102499.81;;;3.49;78.91
58658;BME280;44428;45.630;13.786;2023-02-03T05:34:27;102490.22;;;3.49;79.30
58658;BME280;44428;45.630;13.786;2023-02-03T05:36:53;102481.34;;;3.59;78.90
58658;BME280;44428;45.630;13.786;2023-02-03T05:39:19;102474.28;;;3.67;78.94
58658;BME280;44428;45.630;13.786;2023-02-03T05:41:45;102477.69;;;3.76;78.94
58658;BME280;44428;45.630;13.786;2023-02-03T05:44:20;102473.16;;;3.87;78.73
58658;BME280;44428;45.630;13.786;2023-02-03T05:46:47;102470.31;;;4.02;77.98
58658;BME280;44428;45.630;13.786;2023-02-03T05:49:13;102471.97;;;4.09;77.32
58658;BME280;44428;45.630;13.786;2023-02-03T05:51:39;102463.97;;;4.19;76.51
58658;BME280;44428;45.630;13.786;2023-02-03T05:54:05;102468.22;;;4.26;76.14
58658;BME280;44428;45.630;13.786;2023-02-03T05:56:31;102463.78;;;4.29;76.13
58658;BME280;44428;45.630;13.786;2023-02-03T05:58:57;102471.69;;;4.28;75.85
58658;BME280;44428;45.630;13.786;2023-02-03T06:01:23;102469.97;;;4.27;75.93
58658;BME280;44428;45.630;13.786;2023-02-03T06:03:49;102477.06;;;4.19;75.94
58658;BME280;44428;45.630;13.786;2023-02-03T06:06:15;102482.28;;;4.19;76.59
58658;BME280;44428;45.630;13.786;2023-02-03T06:08:41;102471.81;;;4.19;76.87
58658;BME280;44428;45.630;13.786;2023-02-03T06:11:07;102473.50;;;4.23;77.10
58658;BME280;44428;45.630;13.786;2023-02-03T06:13:33;102474.31;;;4.26;77.19
58658;BME280;44428;45.630;13.786;2023-02-03T06:15:59;102482.19;;;4.25;77.09
58658;BME280;44428;45.630;13.786;2023-02-03T06:18:24;102501.31;;;4.30;77.45
58658;BME280;44428;45.630;13.786;2023-02-03T06:20:50;102499.41;;;4.38;77.30
58658;BME280;44428;45.630;13.786;2023-02-03T06:23:16;102507.97;;;4.49;77.31
58658;BME280;44428;45.630;13.786;2023-02-03T06:25:44;102497.41;;;4.55;77.17
58658;BME280;44428;45.630;13.786;2023-02-03T06:28:11;102490.41;;;4.57;76.86
58658;BME280;44428;45.630;13.786;2023-02-03T06:30:37;102506.00;;;4.64;76.79
58658;BME280;44428;45.630;13.786;2023-02-03T06:33:03;102498.97;;;4.66;76.82
58658;BME280;44428;45.630;13.786;2023-02-03T06:35:28;102498.94;;;4.67;76.99
58658;BME280;44428;45.630;13.786;2023-02-03T06:37:54;102507.63;;;4.71;76.96
58658;BME280;44428;45.630;13.786;2023-02-03T06:40:20;102521.66;;;4.67;77.15
58658;BME280;44428;45.630;13.786;2023-02-03T06:42:46;102540.81;;;4.69;77.50
58658;BME280;44428;45.630;13.786;2023-02-03T06:45:13;102540.81;;;4.69;77.16
58658;BME280;44428;45.630;13.786;2023-02-03T06:47:40;102546.03;;;4.69;77.82
58658;BME280;44428;45.630;13.786;2023-02-03T06:50:07;102534.72;;;4.68;77.83
58658;BME280;44428;45.630;13.786;2023-02-03T06:52:33;102539.09;;;4.68;77.78
58658;BME280;44428;45.630;13.786;2023-02-03T06:54:58;102537.31;;;4.70;78.21
58658;BME280;44428;45.630;13.786;2023-02-03T06:57:24;102554.69;;;4.74;78.57
58658;BME280;44428;45.630;13.786;2023-02-03T06:59:49;102545.94;;;4.76;78.51
58658;BME280;44428;45.630;13.786;2023-02-03T07:02:15;102552.81;;;4.82;78.83
58658;BME280;44428;45.630;13.786;2023-02-03T07:04:41;102559.56;;;4.95;79.17
58658;BME280;44428;45.630;13.786;2023-02-03T07:07:10;102559.34;;;5.08;79.64
58658;BME280;44428;45.630;13.786;2023-02-03T07:09:37;102560.88;;;5.21;80.36
58658;BME280;44428;45.630;13.786;2023-02-03T07:12:05;102560.59;;;5.36;80.77
58658;BME280;44428;45.630;13.786;2023-02-03T07:14:30;102562.09;;;5.49;80.97
58658;BME280;44428;45.630;13.786;2023-02-03T07:16:56;102566.97;;;5.68;82.06
58658;BME280;44428;45.630;13.786;2023-02-03T07:19:22;102561.28;;;5.89;81.92
58658;BME280;44428;45.630;13.786;2023-02-03T07:21:47;102554.75;;;6.10;81.14
58658;BME280;44428;45.630;13.786;2023-02-03T07:24:13;102544.75;;;6.26;80.79
58658;BME280;44428;45.630;13.786;2023-02-03T07:26:39;102539.25;;;6.38;80.82
58658;BME280;44428;45.630;13.786;2023-02-03T07:29:05;102550.25;;;6.54;80.30
58658;BME280;44428;45.630;13.786;2023-02-03T07:31:30;102548.94;;;6.72;80.34
58658;BME280;44428;45.630;13.786;2023-02-03T07:33:56;102539.75;;;6.88;79.99
58658;BME280;44428;45.630;13.786;2023-02-03T07:36:22;102539.34;;;7.04;79.70
58658;BME280;44428;45.630;13.786;2023-02-03T07:38:49;102551.03;;;7.26;78.96
58658;BME280;44428;45.630;13.786;2023-02-03T07:41:15;102564.66;;;7.41;78.09
58658;BME280;44428;45.630;13.786;2023-02-03T07:43:40;102561.06;;;7.45;77.72
58658;BME280;44428;45.630;13.786;2023-02-03T07:46:06;102565.22;;;7.53;76.76
58658;BME280;44428;45.630;13.786;2023-02-03T07:48:32;102572.19;;;7.54;76.46
58658;BME280;44428;45.630;13.786;2023-02-03T07:50:57;102564.22;;;7.56;75.76
58658;BME280;44428;45.630;13.786;2023-02-03T07:53:23;102543.91;;;7.63;74.96
58658;BME280;44428;45.630;13.786;2023-02-03T07:55:49;102546.22;;;7.73;74.58
58658;BME280;44428;45.630;13.786;2023-02-03T07:58:14;102551.09;;;7.86;74.77
58658;BME280;44428;45.630;13.786;2023-02-03T08:00:41;102554.13;;;8.03;73.94
58658;BME280;44428;45.630;13.786;2023-02-03T08:03:07;102536.22;;;8.14;72.81
58658;BME280;44428;45.630;13.786;2023-02-03T08:05:33;102514.97;;;8.20;72.52
58658;BME280;44428;45.630;13.786;2023-02-03T08:07:58;102515.44;;;8.33;71.79
58658;BME280;44428;45.630;13.786;2023-02-03T08:10:24;102517.03;;;8.39;71.96
58658;BME280;44428;45.630;13.786;2023-02-03T08:12:54;102509.75;;;8.47;71.29
58658;BME280;44428;45.630;13.786;2023-02-03T08:15:20;102496.84;;;8.38;71.25
58658;BME280;44428;45.630;13.786;2023-02-03T08:17:47;102508.94;;;8.45;71.12
58658;BME280;44428;45.630;13.786;2023-02-03T08:20:13;102504.53;;;8.45;71.08
58658;BME280;44428;45.630;13.786;2023-02-03T08:22:39;102506.00;;;8.54;71.12
58658;BME280;44428;45.630;13.786;2023-02-03T08:25:05;102506.63;;;8.62;70.86
58658;BME280;44428;45.630;13.786;2023-02-03T08:27:31;102504.88;;;8.61;70.89
58658;BME280;44428;45.630;13.786;2023-02-03T08:29:57;102491.50;;;8.67;70.38
58658;BME280;44428;45.630;13.786;2023-02-03T08:32:23;102494.03;;;8.70;70.62
58658;BME280;44428;45.630;13.786;2023-02-03T08:34:49;102492.13;;;8.76;70.27
58658;BME280;44428;45.630;13.786;2023-02-03T08:37:18;102499.00;;;8.80;70.16
58658;BME280;44428;45.630;13.786;2023-02-03T08:39:44;102502.00;;;8.94;69.72
58658;BME280;44428;45.630;13.786;2023-02-03T08:42:09;102493.28;;;10.11;66.61
58658;BME280;44428;45.630;13.786;2023-02-03T08:44:35;102509.34;;;11.90;59.85
58658;BME280;44428;45.630;13.786;2023-02-03T08:47:04;102502.19;;;13.50;55.33
58658;BME280;44428;45.630;13.786;2023-02-03T08:49:29;102500.16;;;15.09;49.11
58658;BME280;44428;45.630;13.786;2023-02-03T08:51:57;102502.97;;;16.34;46.29
58658;BME280;44428;45.630;13.786;2023-02-03T08:54:23;102498.84;;;17.59;42.63
58658;BME280;44428;45.630;13.786;2023-02-03T08:56:49;102488.22;;;18.55;40.86
58658;BME280;44428;45.630;13.786;2023-02-03T08:59:15;102481.56;;;19.18;38.86
58658;BME280;44428;45.630;13.786;2023-02-03T09:01:41;102500.16;;;18.62;38.66
58658;BME280;44428;45.630;13.786;2023-02-03T09:04:14;102496.44;;;17.93;40.21
58658;BME280;44428;45.630;13.786;2023-02-03T09:06:44;102498.00;;;17.33;40.65
58658;BME280;44428;45.630;13.786;2023-02-03T09:09:12;102496.50;;;16.90;42.18
58658;BME280;44428;45.630;13.786;2023-02-03T09:11:40;102493.31;;;16.85;41.47
58658;BME280;44428;45.630;13.786;2023-02-03T09:14:06;102480.63;;;15.95;43.27
58658;BME280;44428;45.630;13.786;2023-02-03T09:16:32;102486.28;;;15.47;44.66
58658;BME280;44428;45.630;13.786;2023-02-03T09:18:57;102490.63;;;14.77;46.11
58658;BME280;44428;45.630;13.786;2023-02-03T09:21:23;102494.84;;;13.87;48.34
58658;BME280;44428;45.630;13.786;2023-02-03T09:23:49;102495.72;;;13.21;49.63
58658;BME280;44428;45.630;13.786;2023-02-03T09:26:14;102486.88;;;12.88;51.13
58658;BME280;44428;45.630;13.786;2023-02-03T09:28:40;102498.97;;;12.76;51.70
58658;BME280;44428;45.630;13.786;2023-02-03T09:31:09;102503.19;;;12.80;52.07
58658;BME280;44428;45.630;13.786;2023-02-03T09:33:36;102509.97;;;12.86;52.29
58658;BME280;44428;45.630;13.786;2023-02-03T09:36:02;102520.25;;;12.92;52.10
58658;BME280;44428;45.630;13.786;2023-02-03T09:38:28;102525.41;;;13.29;51.73
58658;BME280;44428;45.630;13.786;2023-02-03T09:41:12;102518.06;;;13.35;50.87
58658;BME280;44428;45.630;13.786;2023-02-03T09:46:17;102524.31;;;14.62;48.14
58658;BME280;44428;45.630;13.786;2023-02-03T09:48:51;102511.75;;;15.08;47.24
58658;BME280;44428;45.630;13.786;2023-02-03T09:51:25;102508.56;;;15.32;46.72
58658;BME280;44428;45.630;13.786;2023-02-03T09:54:04;102500.38;;;16.59;44.39
58658;BME280;44428;45.630;13.786;2023-02-03T09:56:35;102492.81;;;17.68;42.13
58658;BME280;44428;45.630;13.786;2023-02-03T09:59:04;102509.16;;;18.96;39.70
58658;BME280;44428;45.630;13.786;2023-02-03T10:01:42;102512.44;;;21.19;36.02
58658;BME280;44428;45.630;13.786;2023-02-03T10:04:26;102527.25;;;21.65;34.96
58658;BME280;44428;45.630;13.786;2023-02-03T10:07:06;102520.53;;;22.00;34.22
58658;BME280;44428;45.630;13.786;2023-02-03T10:09:55;102508.78;;;21.50;34.11
58658;BME280;44428;45.630;13.786;2023-02-03T10:12:44;102495.38;;;22.59;32.49
58658;BME280;44428;45.630;13.786;2023-02-03T10:15:44;102503.59;;;24.16;29.88
58658;BME280;44428;45.630;13.786;2023-02-03T10:18:17;102484.25;;;24.83;28.19
58658;BME280;44428;45.630;13.786;2023-02-03T10:20:52;102476.47;;;25.40;27.71
58658;BME280;44428;45.630;13.786;2023-02-03T10:23:25;102473.63;;;25.84;26.67
58658;BME280;44428;45.630;13.786;2023-02-03T10:25:55;102472.28;;;25.96;26.26
58658;BME280;44428;45.630;13.786;2023-02-03T10:28:24;102468.91;;;26.35;26.45
58658;BME280;44428;45.630;13.786;2023-02-03T10:30:55;102468.19;;;26.99;25.40
58658;BME280;44428;45.630;13.786;2023-02-03T10:33:21;102461.94;;;27.54;24.58
58658;BME280;44428;45.630;13.786;2023-02-03T10:40:56;102427.91;;;27.66;24.53
58658;BME280;44428;45.630;13.786;2023-02-03T10:43:21;102430.81;;;27.25;25.11
58658;BME280;44428;45.630;13.786;2023-02-03T10:46:06;102433.59;;;27.01;25.56
58658;BME280;44428;45.630;13.786;2023-02-03T10:48:32;102418.38;;;27.70;24.39
58658;BME280;44428;45.630;13.786;2023-02-03T10:50:58;102414.97;;;28.37;23.77
58658;BME280;44428;45.630;13.786;2023-02-03T10:53:31;102415.81;;;27.46;24.58
58658;BME280;44428;45.630;13.786;2023-02-03T10:56:07;102416.41;;;27.56;24.66
58658;BME280;44428;45.630;13.786;2023-02-03T10:58:33;102412.69;;;27.57;24.48
58658;BME280;44428;45.630;13.786;2023-02-03T11:01:09;102411.84;;;27.17;25.11
58658;BME280;44428;45.630;13.786;2023-02-03T11:03:35;102400.59;;;26.81;25.77
58658;BME280;44428;45.630;13.786;2023-02-03T11:06:13;102396.34;;;27.34;25.48
58658;BME280;44428;45.630;13.786;2023-02-03T11:08:45;102378.75;;;27.53;25.20
58658;BME280;44428;45.630;13.786;2023-02-03T11:11:27;102384.06;;;27.07;25.18
58658;BME280;44428;45.630;13.786;2023-02-03T11:16:24;102371.84;;;26.47;25.37
58658;BME280;44428;45.630;13.786;2023-02-03T11:21:39;102360.53;;;26.52;25.61
58658;BME280;44428;45.630;13.786;2023-02-03T11:24:23;102351.50;;;27.07;25.28
58658;BME280;44428;45.630;13.786;2023-02-03T11:27:02;102347.53;;;27.57;24.51
58658;BME280;44428;45.630;13.786;2023-02-03T11:29:30;102333.13;;;27.25;24.72
58658;BME280;44428;45.630;13.786;2023-02-03T11:32:18;102325.31;;;27.30;24.97
58658;BME280;44428;45.630;13.786;2023-02-03T11:35:11;102321.31;;;27.64;24.41
58658;BME280;44428;45.630;13.786;2023-02-03T11:37:44;102318.34;;;26.97;25.39
58658;BME280;44428;45.630;13.786;2023-02-03T11:40:11;102300.09;;;26.82;25.43
58658;BME280;44428;45.630;13.786;2023-02-03T11:42:45;102307.19;;;27.23;24.93
58658;BME280;44428;45.630;13.786;2023-02-03T11:45:27;102282.25;;;27.27;24.75
58658;BME280;44428;45.630;13.786;2023-02-03T11:47:54;102282.13;;;26.81;25.95
58658;BME280;44428;45.630;13.786;2023-02-03T11:59:09;102266.88;;;27.80;24.51
58658;BME280;44428;45.630;13.786;2023-02-03T12:01:54;102277.53;;;28.05;24.26
58658;BME280;44428;45.630;13.786;2023-02-03T12:12:53;102266.44;;;27.54;24.68
58658;BME280;44428;45.630;13.786;2023-02-03T12:29:39;102218.97;;;26.17;26.80
58658;BME280;44428;45.630;13.786;2023-02-03T12:33:00;102197.53;;;26.46;26.16
58658;BME280;44428;45.630;13.786;2023-02-03T12:35:19;102208.81;;;26.27;26.48
58658;BME280;44428;45.630;13.786;2023-02-03T12:37:55;102205.19;;;26.51;26.63
58658;BME280;44428;45.630;13.786;2023-02-03T12:43:32;102187.69;;;26.54;27.12
58658;BME280;44428;45.630;13.786;2023-02-03T12:46:13;102189.94;;;25.53;28.61
58658;BME280;44428;45.630;13.786;2023-02-03T12:51:41;102190.66;;;25.39;29.28
58658;BME280;44428;45.630;13.786;2023-02-03T12:56:49;102201.81;;;24.27;30.25
58658;BME280;44428;45.630;13.786;2023-02-03T12:59:22;102196.44;;;23.74;30.84
58658;BME280;44428;45.630;13.786;2023-02-03T13:01:56;102199.72;;;21.86;33.38
58658;BME280;44428;45.630;13.786;2023-02-03T13:04:35;102194.75;;;20.75;35.93
58658;BME280;44428;45.630;13.786;2023-02-03T13:07:23;102193.16;;;20.32;36.74
58658;BME280;44428;45.630;13.786;2023-02-03T13:12:54;102179.63;;;20.93;35.78
58658;BME280;44428;45.630;13.786;2023-02-03T13:15:43;102162.25;;;19.97;37.33
58658;BME280;44428;45.630;13.786;2023-02-03T13:18:30;102151.75;;;19.10;39.02
58658;BME280;44428;45.630;13.786;2023-02-03T13:20:56;102151.66;;;19.75;38.13
58658;BME280;44428;45.630;13.786;2023-02-03T13:23:23;102144.06;;;19.80;38.17
58658;BME280;44428;45.630;13.786;2023-02-03T13:29:01;102138.78;;;19.99;37.74
58658;BME280;44428;45.630;13.786;2023-02-03T13:42:53;102125.19;;;17.98;43.06
58658;BME280;44428;45.630;13.786;2023-02-03T13:45:47;102136.13;;;17.83;43.06
58658;BME280;44428;45.630;13.786;2023-02-03T13:50:42;102135.50;;;16.37;46.32
58658;BME280;44428;45.630;13.786;2023-02-03T13:56:01;102133.59;;;15.63;48.82
58658;BME280;44428;45.630;13.786;2023-02-03T13:58:32;102131.50;;;15.68;49.44
58658;BME280;44428;45.630;13.786;2023-02-03T14:03:47;102129.78;;;17.03;46.56
58658;BME280;44428;45.630;13.786;2023-02-03T14:09:00;102122.59;;;17.27;45.89
58658;BME280;44428;45.630;13.786;2023-02-03T14:16:48;102120.44;;;15.74;49.85
58658;BME280;44428;45.630;13.786;2023-02-03T14:24:31;102129.53;;;14.36;55.07
58658;BME280;44428;45.630;13.786;2023-02-03T14:26:58;102121.22;;;14.13;56.03
58658;BME280;44428;45.630;13.786;2023-02-03T14:29:29;102130.34;;;13.81;57.42
58658;BME280;44428;45.630;13.786;2023-02-03T14:32:00;102119.88;;;13.63;57.83
58658;BME280;44428;45.630;13.786;2023-02-03T14:34:30;102107.91;;;13.42;59.06
58658;BME280;44428;45.630;13.786;2023-02-03T14:42:11;102122.19;;;13.09;61.04
58658;BME280;44428;45.630;13.786;2023-02-03T14:44:51;102123.66;;;12.99;61.53
58658;BME280;44428;45.630;13.786;2023-02-03T14:50:21;102111.03;;;12.72;63.36